Time;durP1;ratioP1;P1;durP2;ratioP2;P2;SDS_P1;SDS_P2;PMS_P1;PMS_P2;Temp;Humidity;BMP_temperature;BMP_pressure;BME280_temperature;BME280_humidity;BME280_pressure;Samples;Min_cycle;Max_cycle;Signal;HPM_P1;HPM_P2
2023/07/26 00:01:53;;;;;;;2.60;1.73;;;14.60;99.90;14.70;99719.00;;;;4859982;28;84851;-63
2023/07/26 00:04:19;;;;;;;3.50;2.80;;;14.60;99.90;14.70;99721.00;;;;4861269;28;112774;-63
2023/07/26 00:06:44;;;;;;;3.13;2.45;;;14.60;99.90;14.70;99722.00;;;;4858411;28;112192;-63
2023/07/26 00:09:10;;;;;;;2.60;2.15;;;14.60;99.90;14.70;99721.00;;;;4857815;28;110190;-63
2023/07/26 00:11:36;;;;;;;3.28;1.95;;;14.60;99.90;14.70;99725.00;;;;4858390;28;112149;-63
2023/07/26 00:14:03;;;;;;;3.50;2.65;;;14.60;99.90;14.70;99729.00;;;;4856735;28;85077;-63
2023/07/26 00:16:30;;;;;;;4.87;2.20;;;14.60;99.90;14.70;99734.00;;;;4859603;28;82940;-63
2023/07/26 00:18:56;;;;;;;2.13;1.93;;;14.60;99.90;14.70;99731.00;;;;4864322;28;83031;-63
2023/07/26 00:21:22;;;;;;;2.60;2.37;;;14.60;99.90;14.70;99730.00;;;;4864765;28;83593;-64
2023/07/26 00:23:48;;;;;;;3.88;2.70;;;14.60;99.90;14.70;99730.00;;;;4859487;28;82710;-63
2023/07/26 00:26:13;;;;;;;2.20;2.00;;;14.60;99.90;14.70;99727.00;;;;4856058;28;109680;-63
2023/07/26 00:28:39;;;;;;;2.38;1.92;;;14.60;99.90;14.70;99733.00;;;;4856978;28;108515;-61
2023/07/26 00:31:05;;;;;;;2.45;2.25;;;14.60;99.90;14.70;99729.00;;;;4853572;28;82580;-62
2023/07/26 00:33:31;;;;;;;3.58;2.58;;;14.60;99.90;14.70;99727.00;;;;4852925;28;100397;-63
2023/07/26 00:35:56;;;;;;;4.75;2.83;;;14.60;99.90;14.70;99728.00;;;;4855841;28;111511;-63
2023/07/26 00:38:22;;;;;;;2.83;1.75;;;14.60;99.90;14.70;99728.00;;;;4854282;28;107248;-62
2023/07/26 00:40:48;;;;;;;2.60;2.40;;;14.60;99.90;14.70;99731.00;;;;4856317;28;111811;-62
2023/07/26 00:43:14;;;;;;;3.03;2.25;;;14.60;99.90;14.70;99732.00;;;;4856741;28;110920;-61
2023/07/26 00:45:41;;;;;;;3.10;2.45;;;14.60;99.90;14.70;99732.00;;;;4856629;28;109556;-61
2023/07/26 00:48:07;;;;;;;3.72;2.28;;;14.60;99.90;14.70;99729.00;;;;4857750;28;82748;-62
2023/07/26 00:50:33;;;;;;;2.33;2.03;;;14.60;99.90;14.70;99733.00;;;;4860837;28;112682;-61
2023/07/26 00:52:59;;;;;;;5.40;2.65;;;14.60;99.90;14.70;99734.00;;;;4855353;28;113418;-61
2023/07/26 00:55:25;;;;;;;2.55;1.75;;;14.60;99.90;14.60;99733.00;;;;4861141;28;90821;-62
2023/07/26 00:57:52;;;;;;;2.45;2.15;;;14.60;99.90;14.60;99745.00;;;;4857702;28;83394;-61
2023/07/26 01:00:18;;;;;;;2.25;2.05;;;14.60;99.90;14.60;99737.00;;;;4873537;28;111735;-61
2023/07/26 01:02:44;;;;;;;2.13;2.03;;;14.60;99.90;14.60;99730.00;;;;4859657;28;84504;-62
2023/07/26 01:05:10;;;;;;;2.88;2.33;;;14.60;99.90;14.60;99730.00;;;;4864107;28;99767;-61
2023/07/26 01:08:18;;;;;;;2.83;2.47;;;14.60;99.90;14.60;99730.00;;;;4865388;28;109854;-62
2023/07/26 01:10:57;;;;;;;3.45;2.05;;;14.60;99.90;14.60;99738.00;;;;4859095;28;83786;-61
2023/07/26 01:13:50;;;;;;;3.67;1.93;;;14.60;99.90;14.50;99733.00;;;;4867728;28;105036;-62
2023/07/26 01:16:16;;;;;;;2.92;2.45;;;14.50;99.90;14.50;99731.00;;;;4860201;28;83899;-63
2023/07/26 01:18:42;;;;;;;2.22;2.03;;;14.50;99.90;14.50;99744.00;;;;4861285;28;102131;-62
2023/07/26 01:21:07;;;;;;;2.47;1.85;;;14.50;99.90;14.50;99740.00;;;;4860802;28;113032;-62
2023/07/26 01:23:35;;;;;;;2.55;1.63;;;14.50;99.90;14.50;99743.00;;;;4864671;28;83624;-62
2023/07/26 01:26:00;;;;;;;3.08;2.20;;;14.40;99.90;14.50;99743.00;;;;4867023;28;82860;-64
2023/07/26 01:28:26;;;;;;;2.35;1.85;;;14.40;99.90;14.40;99748.00;;;;4861269;28;94866;-63
2023/07/26 01:30:53;;;;;;;1.80;1.70;;;14.40;99.90;14.40;99746.00;;;;4859861;28;112577;-63
2023/07/26 01:33:20;;;;;;;2.10;1.90;;;14.40;99.90;14.40;99749.00;;;;4875176;28;110688;-63
2023/07/26 01:35:47;;;;;;;6.80;2.05;;;14.40;99.90;14.40;99746.00;;;;4858548;28;82897;-63
2023/07/26 01:38:14;;;;;;;3.20;1.98;;;14.30;99.90;14.30;99751.00;;;;4860911;28;98874;-63
2023/07/26 01:40:41;;;;;;;1.70;1.58;;;14.30;99.90;14.30;99746.00;;;;4859208;28;113522;-63
2023/07/26 01:43:07;;;;;;;1.88;1.45;;;14.30;99.90;14.30;99757.00;;;;4864000;28;84689;-64
2023/07/26 01:45:33;;;;;;;2.63;1.83;;;14.20;99.90;14.20;99754.00;;;;4865668;28;82869;-63
2023/07/26 01:47:59;;;;;;;2.00;1.80;;;14.20;99.90;14.20;99755.00;;;;4861930;28;106753;-63
2023/07/26 01:50:25;;;;;;;2.03;1.90;;;14.20;99.90;14.20;99760.00;;;;4862412;28;82785;-62
2023/07/26 01:52:50;;;;;;;3.40;1.90;;;14.10;99.90;14.10;99762.00;;;;4861088;28;83346;-63
2023/07/26 01:55:16;;;;;;;3.97;1.83;;;14.10;99.90;14.10;99765.00;;;;4863324;28;111914;-63
2023/07/26 01:57:42;;;;;;;2.03;1.83;;;14.10;99.90;14.10;99765.00;;;;4865742;28;97340;-64
2023/07/26 02:00:08;;;;;;;3.27;1.93;;;14.10;99.90;14.10;99765.00;;;;4859892;28;107705;-63
2023/07/26 02:02:34;;;;;;;4.22;1.63;;;14.10;99.90;14.00;99780.00;;;;4864927;28;83760;-64
2023/07/26 02:05:00;;;;;;;2.53;1.87;;;14.00;99.90;14.00;99778.00;;;;4858166;28;109822;-63
2023/07/26 02:07:26;;;;;;;2.03;1.73;;;14.00;99.90;14.00;99773.00;;;;4864652;28;82588;-64
2023/07/26 02:09:51;;;;;;;1.75;1.65;;;14.00;99.90;14.00;99788.00;;;;4862917;28;83332;-64
2023/07/26 02:12:17;;;;;;;1.50;1.40;;;14.00;99.90;14.00;99788.00;;;;4858056;28;89027;-65
2023/07/26 02:14:42;;;;;;;2.38;1.63;;;14.00;99.90;14.00;99791.00;;;;4869828;28;110796;-64
2023/07/26 02:17:08;;;;;;;3.20;1.80;;;14.00;99.90;14.00;99791.00;;;;4858065;28;107709;-64
2023/07/26 02:19:35;;;;;;;3.20;1.80;;;14.00;99.90;14.00;99800.00;;;;4852027;28;112324;-65
2023/07/26 02:22:00;;;;;;;1.97;1.60;;;14.00;99.90;14.00;99808.00;;;;4862014;28;83374;-64
2023/07/26 02:24:26;;;;;;;1.95;1.75;;;13.90;99.90;14.00;99800.00;;;;4858144;28;108739;-65
2023/07/26 02:26:51;;;;;;;1.53;1.43;;;13.90;99.90;13.90;99804.00;;;;4856041;28;82908;-64
2023/07/26 02:29:17;;;;;;;2.47;1.07;;;13.90;99.90;13.90;99809.00;;;;4858302;28;113741;-64
2023/07/26 02:31:43;;;;;;;1.63;1.52;;;13.90;99.90;13.90;99810.00;;;;4860897;28;92954;-64
2023/07/26 02:34:08;;;;;;;5.20;2.33;;;13.90;99.90;13.90;99819.00;;;;4858604;28;109283;-65
2023/07/26 02:36:34;;;;;;;2.03;1.93;;;13.90;99.90;13.90;99811.00;;;;4857991;28;108955;-65
2023/07/26 02:39:00;;;;;;;1.40;1.30;;;13.90;99.90;13.90;99819.00;;;;4865495;28;111728;-64
2023/07/26 02:41:26;;;;;;;1.37;1.27;;;13.90;99.90;13.90;99824.00;;;;4857335;28;82771;-64
2023/07/26 02:43:51;;;;;;;1.42;1.33;;;13.90;99.90;13.90;99822.00;;;;4860047;28;83138;-66
2023/07/26 02:46:17;;;;;;;1.73;1.38;;;13.90;99.90;13.80;99828.00;;;;4857985;28;107819;-65
2023/07/26 02:48:42;;;;;;;1.13;0.90;;;13.80;99.90;13.80;99836.00;;;;4857666;28;113250;-64
2023/07/26 02:51:08;;;;;;;2.07;1.47;;;13.80;99.90;13.80;99845.00;;;;4858702;28;91818;-66
2023/07/26 02:53:34;;;;;;;1.20;0.83;;;13.80;99.90;13.80;99848.00;;;;4856632;28;110264;-66
2023/07/26 02:55:59;;;;;;;4.83;2.10;;;13.80;99.90;13.80;99848.00;;;;4859046;28;90924;-66
2023/07/26 02:58:25;;;;;;;4.17;1.97;;;13.80;99.90;13.80;99852.00;;;;4857503;28;111973;-65
2023/07/26 03:00:53;;;;;;;3.47;1.67;;;13.80;99.90;13.80;99852.00;;;;4858932;28;111815;-65
2023/07/26 03:03:19;;;;;;;2.13;1.50;;;13.70;99.90;13.70;99857.00;;;;4857983;28;92440;-65
2023/07/26 03:05:45;;;;;;;1.87;1.30;;;13.70;99.90;13.70;99861.00;;;;4856261;28;107296;-64
2023/07/26 03:08:10;;;;;;;5.57;2.50;;;13.70;99.90;13.70;99856.00;;;;4859289;28;113238;-65
2023/07/26 03:10:36;;;;;;;2.73;1.93;;;13.70;99.90;13.70;99865.00;;;;4860980;28;112421;-66
2023/07/26 03:13:02;;;;;;;1.83;1.17;;;13.70;99.90;13.70;99868.00;;;;4859324;28;110042;-65
2023/07/26 03:15:27;;;;;;;3.50;1.67;;;13.70;99.90;13.70;99872.00;;;;4860001;28;109072;-64
2023/07/26 03:17:53;;;;;;;1.47;1.37;;;13.70;99.90;13.70;99867.00;;;;4858539;28;112962;-65
2023/07/26 03:20:19;;;;;;;1.60;1.50;;;13.60;99.90;13.60;99876.00;;;;4861095;28;113916;-64
2023/07/26 03:22:44;;;;;;;1.40;1.30;;;13.60;99.90;13.60;99882.00;;;;4862078;28;101814;-65
2023/07/26 03:25:10;;;;;;;1.40;1.27;;;13.60;99.90;13.60;99873.00;;;;4861789;28;108300;-65
2023/07/26 03:27:36;;;;;;;1.67;1.47;;;13.60;99.90;13.60;99880.00;;;;4861437;28;104649;-65
2023/07/26 03:30:02;;;;;;;11.23;2.37;;;13.60;99.90;13.60;99876.00;;;;4863270;28;112938;-65
2023/07/26 03:32:28;;;;;;;1.37;1.27;;;13.60;99.90;13.50;99874.00;;;;4863857;28;83189;-65
2023/07/26 03:34:54;;;;;;;6.57;1.60;;;13.50;99.90;13.50;99882.00;;;;4865513;28;106928;-64
2023/07/26 03:37:19;;;;;;;1.57;1.10;;;13.50;99.90;13.50;99882.00;;;;4859143;28;87223;-64
2023/07/26 03:39:45;;;;;;;1.60;0.90;;;13.50;99.90;13.50;99879.00;;;;4861395;28;112413;-65
2023/07/26 03:42:10;;;;;;;2.47;1.93;;;13.50;99.90;13.40;99882.00;;;;4860413;28;83651;-65
2023/07/26 03:44:36;;;;;;;2.30;1.50;;;13.40;99.90;13.40;99883.00;;;;4860728;28;108839;-65
2023/07/26 03:47:08;;;;;;;3.40;1.47;;;13.40;99.90;13.40;99889.00;;;;4867885;28;82889;-65
2023/07/26 03:49:34;;;;;;;1.00;0.93;;;13.40;99.90;13.40;99887.00;;;;4859749;28;96506;-65
2023/07/26 03:51:59;;;;;;;1.23;1.00;;;13.40;99.90;13.30;99889.00;;;;4854971;28;82812;-64
2023/07/26 03:54:25;;;;;;;2.60;1.43;;;13.30;99.90;13.30;99892.00;;;;4855984;28;101606;-65
2023/07/26 03:56:51;;;;;;;1.37;1.03;;;13.30;99.90;13.30;99902.00;;;;4858520;28;82992;-65
2023/07/26 03:59:16;;;;;;;0.83;0.83;;;13.30;99.90;13.20;99902.00;;;;4854384;28;113539;-65
2023/07/26 04:01:42;;;;;;;1.20;1.10;;;13.20;99.90;13.20;99909.00;;;;4857597;28;90520;-64
2023/07/26 04:04:07;;;;;;;1.50;1.40;;;13.20;99.90;13.20;99908.00;;;;4855570;28;108988;-64
2023/07/26 04:06:33;;;;;;;2.17;1.33;;;13.20;99.90;13.10;99915.00;;;;4859955;28;97830;-64
2023/07/26 04:08:59;;;;;;;1.93;1.47;;;13.30;99.90;13.10;99914.00;;;;4853853;28;110724;-64
2023/07/26 04:11:24;;;;;;;1.70;1.60;;;12.70;99.90;13.10;99915.00;;;;4859078;28;110480;-64
2023/07/26 04:13:50;;;;;;;2.27;1.70;;;13.10;99.90;13.10;99918.00;;;;4861933;28;103943;-65
2023/07/26 04:16:18;;;;;;;1.47;1.37;;;13.10;99.90;13.20;99909.00;;;;4855287;28;113519;-66
2023/07/26 04:18:44;;;;;;;1.87;1.30;;;13.20;99.90;13.20;99917.00;;;;4873595;28;82940;-65
2023/07/26 04:21:16;;;;;;;1.70;1.57;;;13.10;99.90;13.10;99921.00;;;;4860917;28;86028;-65
2023/07/26 04:23:44;;;;;;;0.80;0.80;;;13.20;99.90;13.20;99929.00;;;;4859571;28;82148;-65
2023/07/26 04:26:09;;;;;;;2.13;1.20;;;13.20;99.90;13.20;99934.00;;;;4852603;28;83966;-65
2023/07/26 04:28:35;;;;;;;1.50;1.30;;;13.10;99.90;13.20;99936.00;;;;4859145;28;109084;-64
2023/07/26 04:31:01;;;;;;;1.20;1.10;;;13.10;99.90;13.20;99939.00;;;;4861399;28;109781;-63
2023/07/26 04:33:26;;;;;;;1.70;0.83;;;13.20;99.90;13.20;99937.00;;;;4862287;28;82674;-64
2023/07/26 04:35:52;;;;;;;1.00;0.80;;;13.20;99.90;13.20;99940.00;;;;4850245;28;112217;-63
2023/07/26 04:38:21;;;;;;;1.50;1.40;;;13.20;99.90;13.30;99939.00;;;;4868641;28;113200;-64
2023/07/26 04:40:47;;;;;;;6.70;1.57;;;13.20;99.90;13.30;99939.00;;;;4858211;28;100649;-63
2023/07/26 04:43:19;;;;;;;1.40;1.03;;;13.20;99.90;13.30;99945.00;;;;4863439;28;82993;-63
2023/07/26 04:45:50;;;;;;;1.57;1.47;;;13.20;99.90;13.30;99947.00;;;;4852412;28;83162;-64
2023/07/26 04:48:17;;;;;;;4.00;0.97;;;13.30;99.90;13.40;99948.00;;;;4859627;28;82562;-62
2023/07/26 04:50:44;;;;;;;1.97;1.67;;;13.30;99.90;13.40;99941.00;;;;4859981;28;102095;-65
2023/07/26 04:53:10;;;;;;;2.93;0.87;;;13.40;99.90;13.40;99945.00;;;;4875977;28;82566;-63
2023/07/26 04:55:52;;;;;;;0.90;0.90;;;13.40;99.90;13.40;99958.00;;;;4860221;28;112757;-64
2023/07/26 04:58:19;;;;;;;2.57;1.10;;;13.40;99.90;13.40;99964.00;;;;4856830;28;112814;-63
2023/07/26 05:00:44;;;;;;;0.87;0.83;;;13.40;99.90;13.40;99964.00;;;;4849881;28;110444;-63
2023/07/26 05:03:11;;;;;;;2.40;1.63;;;13.40;99.90;13.50;99968.00;;;;4860542;28;89436;-63
2023/07/26 05:05:37;;;;;;;1.30;1.20;;;13.40;99.90;13.50;99973.00;;;;4858999;28;84045;-63
2023/07/26 05:08:04;;;;;;;1.57;0.90;;;13.40;99.90;13.50;99966.00;;;;4862110;28;112955;-64
2023/07/26 05:10:30;;;;;;;2.90;1.30;;;13.50;99.90;13.50;99965.00;;;;4864185;28;82897;-63
2023/07/26 05:12:57;;;;;;;1.03;0.93;;;13.50;99.90;13.50;99964.00;;;;4862362;28;109005;-63
2023/07/26 05:15:23;;;;;;;2.50;1.50;;;13.50;99.90;13.50;99968.00;;;;4863178;28;105763;-63
2023/07/26 05:17:50;;;;;;;0.97;0.97;;;13.50;99.90;13.50;99968.00;;;;4861504;28;82797;-62
2023/07/26 05:20:16;;;;;;;1.33;1.13;;;13.50;99.90;13.60;99970.00;;;;4858642;28;84741;-62
2023/07/26 05:22:42;;;;;;;2.07;1.27;;;13.50;99.90;13.60;99982.00;;;;4860006;28;108080;-63
2023/07/26 05:25:08;;;;;;;1.17;0.97;;;13.50;99.90;13.60;99980.00;;;;4857813;28;112232;-62
2023/07/26 05:27:34;;;;;;;1.27;1.17;;;13.50;99.90;13.60;99975.00;;;;4880319;28;104363;-62
2023/07/26 05:29:59;;;;;;;1.03;0.77;;;13.60;99.90;13.60;99971.00;;;;4867403;28;83192;-63
2023/07/26 05:32:26;;;;;;;1.37;1.23;;;13.60;99.90;13.70;99990.00;;;;4861217;28;107090;-62
2023/07/26 05:34:57;;;;;;;0.97;0.87;;;13.60;99.90;13.70;99996.00;;;;4861789;28;94980;-63
2023/07/26 05:37:23;;;;;;;1.20;1.10;;;13.60;99.90;13.70;99986.00;;;;4854534;28;82165;-63
2023/07/26 05:39:50;;;;;;;1.50;1.40;;;13.60;99.90;13.70;99993.00;;;;4860904;28;82761;-63
2023/07/26 05:42:16;;;;;;;1.43;1.30;;;13.70;99.90;13.70;99995.00;;;;4861044;28;100479;-62
2023/07/26 05:44:41;;;;;;;2.77;1.03;;;13.70;99.90;13.80;99991.00;;;;4862456;28;88385;-63
2023/07/26 05:47:09;;;;;;;5.07;1.10;;;13.70;99.90;13.80;99997.00;;;;4859086;28;106909;-62
2023/07/26 05:49:35;;;;;;;2.23;1.13;;;13.70;99.90;13.80;100001.00;;;;4859727;28;82924;-63
2023/07/26 05:52:01;;;;;;;1.37;0.87;;;13.80;99.90;13.90;100009.00;;;;4860087;28;109139;-64
2023/07/26 05:54:26;;;;;;;0.90;0.80;;;13.80;99.90;13.90;100009.00;;;;4867295;28;82934;-63
2023/07/26 05:56:52;;;;;;;2.00;1.00;;;13.80;99.90;14.00;100007.00;;;;4856027;28;112393;-62
2023/07/26 05:59:18;;;;;;;4.13;1.37;;;13.90;99.90;14.10;100019.00;;;;4858906;28;111502;-62
2023/07/26 06:01:43;;;;;;;1.80;0.90;;;14.00;99.90;14.10;100011.00;;;;4866785;28;109650;-63
2023/07/26 06:04:09;;;;;;;1.63;1.07;;;14.00;99.90;14.20;100013.00;;;;4866374;28;113750;-62
2023/07/26 06:06:35;;;;;;;1.67;1.40;;;14.10;99.90;14.20;100031.00;;;;4858365;28;111834;-63
2023/07/26 06:09:00;;;;;;;1.43;1.10;;;14.20;99.90;14.30;100022.00;;;;4861303;28;108539;-62
2023/07/26 06:11:26;;;;;;;2.85;1.05;;;14.20;99.90;14.40;100024.00;;;;4859246;28;109182;-63
2023/07/26 06:13:54;;;;;;;1.93;1.20;;;14.30;99.90;14.50;100021.00;;;;4866677;28;103424;-63
2023/07/26 06:16:19;;;;;;;1.33;0.87;;;14.40;99.90;14.60;100020.00;;;;4870417;28;82769;-63
2023/07/26 06:18:45;;;;;;;2.53;1.05;;;14.50;99.90;14.70;100024.00;;;;4862733;28;98758;-63
2023/07/26 06:21:11;;;;;;;0.75;0.60;;;14.60;99.90;14.70;100023.00;;;;4865803;28;108986;-63
2023/07/26 06:23:46;;;;;;;2.72;0.90;;;14.60;99.90;14.90;100031.00;;;;4861576;28;86118;-63
2023/07/26 06:26:12;;;;;;;4.13;1.27;;;14.70;99.90;14.90;100025.00;;;;4869236;28;83222;-63
2023/07/26 06:28:38;;;;;;;1.10;0.65;;;14.80;99.90;15.00;100024.00;;;;4863777;28;98007;-65
2023/07/26 06:31:04;;;;;;;0.98;0.73;;;14.90;99.90;15.10;100032.00;;;;4864322;28;82970;-64
2023/07/26 06:33:30;;;;;;;0.80;0.80;;;15.00;99.90;15.20;100030.00;;;;4864214;28;114434;-64
2023/07/26 06:35:56;;;;;;;1.15;0.98;;;15.40;99.90;15.20;100041.00;;;;4860934;28;86979;-64
2023/07/26 06:38:21;;;;;;;2.38;0.95;;;15.20;99.90;15.30;100047.00;;;;4860981;28;82779;-63
2023/07/26 06:40:48;;;;;;;2.38;0.90;;;15.20;99.90;15.30;100031.00;;;;4863609;28;107531;-64
2023/07/26 06:43:14;;;;;;;5.45;1.10;;;15.20;99.90;15.40;100041.00;;;;4857895;28;112846;-64
2023/07/26 06:45:47;;;;;;;2.15;1.35;;;15.30;99.90;15.50;100036.00;;;;4859026;28;112038;-64
2023/07/26 06:48:14;;;;;;;1.58;1.00;;;15.40;99.90;15.70;100041.00;;;;4859105;28;82677;-64
2023/07/26 06:50:40;;;;;;;0.75;0.75;;;15.50;99.90;15.90;100041.00;;;;4864178;28;83005;-64
2023/07/26 06:53:06;;;;;;;1.10;1.00;;;15.70;99.90;16.10;100039.00;;;;4862313;28;104594;-64
2023/07/26 06:55:33;;;;;;;1.13;0.80;;;15.90;99.90;16.40;100049.00;;;;4864946;28;94553;-65
2023/07/26 06:57:58;;;;;;;1.42;0.90;;;16.20;99.90;16.60;100052.00;;;;4867963;28;83843;-63
2023/07/26 07:00:24;;;;;;;2.20;0.77;;;16.40;99.90;16.80;100043.00;;;;4863984;28;108732;-64
2023/07/26 07:02:59;;;;;;;1.40;0.80;;;16.60;99.90;17.10;100049.00;;;;4861676;28;113647;-64
2023/07/26 07:05:27;;;;;;;1.13;0.80;;;16.80;99.90;17.30;100045.00;;;;4863498;28;82971;-64
2023/07/26 07:07:52;;;;;;;0.60;0.60;;;17.10;99.90;17.50;100059.00;;;;4868107;28;98498;-64
2023/07/26 07:10:19;;;;;;;5.13;1.15;;;17.30;99.90;17.70;100055.00;;;;4865693;28;108228;-65
2023/07/26 07:12:44;;;;;;;1.50;0.65;;;17.50;99.90;17.90;100052.00;;;;4863343;28;105935;-63
2023/07/26 07:15:11;;;;;;;0.95;0.60;;;17.70;99.90;18.10;100061.00;;;;4871883;28;112659;-63
2023/07/26 07:17:36;;;;;;;0.60;0.60;;;17.90;99.90;18.20;100058.00;;;;4864741;28;110777;-63
2023/07/26 07:20:05;;;;;;;1.08;0.70;;;18.10;99.90;18.20;100060.00;;;;4873674;28;97614;-63
2023/07/26 07:22:30;;;;;;;0.60;0.60;;;18.10;99.90;18.30;100057.00;;;;4871871;28;87638;-63
2023/07/26 07:24:56;;;;;;;3.90;0.80;;;18.10;99.90;18.40;100059.00;;;;4856556;28;103472;-63
2023/07/26 07:27:22;;;;;;;0.45;0.35;;;18.30;99.90;18.50;100059.00;;;;4866632;28;110384;-64
2023/07/26 07:29:48;;;;;;;1.48;0.73;;;18.40;99.90;18.70;100060.00;;;;4862008;28;101219;-64
2023/07/26 07:32:14;;;;;;;2.15;0.90;;;18.50;99.90;18.80;100063.00;;;;4867564;28;83222;-63
2023/07/26 07:34:40;;;;;;;0.55;0.55;;;18.70;99.90;18.90;100063.00;;;;4859801;28;113031;-64
2023/07/26 07:37:05;;;;;;;4.50;0.65;;;18.80;99.90;18.90;100073.00;;;;4860646;28;103504;-64
2023/07/26 07:39:32;;;;;;;0.70;0.50;;;18.80;99.90;19.00;100070.00;;;;4859562;28;108978;-64
2023/07/26 07:41:57;;;;;;;1.75;0.80;;;18.80;99.90;19.20;100075.00;;;;4860626;28;112880;-63
2023/07/26 07:44:23;;;;;;;0.63;0.63;;;19.00;99.90;19.30;100068.00;;;;4862118;28;112155;-63
2023/07/26 07:46:49;;;;;;;0.68;0.68;;;19.20;99.90;19.40;100075.00;;;;4858807;28;102616;-62
2023/07/26 07:49:15;;;;;;;2.20;0.52;;;19.30;99.90;19.50;100074.00;;;;4861681;28;83017;-63
2023/07/26 07:51:41;;;;;;;0.60;0.47;;;19.40;99.90;19.80;100067.00;;;;4859910;28;83489;-62
2023/07/26 07:54:07;;;;;;;0.55;0.50;;;19.60;99.90;19.90;100066.00;;;;4857673;28;112603;-64
2023/07/26 07:56:32;;;;;;;0.52;0.52;;;19.80;99.90;19.90;100083.00;;;;4857314;28;90787;-64
2023/07/26 07:58:58;;;;;;;1.10;0.43;;;19.80;99.90;19.80;100082.00;;;;4857657;28;107644;-63
2023/07/26 08:01:24;;;;;;;2.17;0.90;;;19.80;97.90;19.70;100084.00;;;;4858454;28;112841;-63
2023/07/26 08:03:49;;;;;;;0.40;0.40;;;19.70;98.70;19.70;100079.00;;;;4857168;28;112925;-64
2023/07/26 08:06:15;;;;;;;0.85;0.63;;;19.70;99.10;19.80;100077.00;;;;4865052;28;110488;-63
2023/07/26 08:08:41;;;;;;;1.17;0.70;;;19.70;98.40;19.70;100064.00;;;;4863379;28;109667;-63
2023/07/26 08:11:06;;;;;;;1.00;0.70;;;19.60;97.90;19.70;100070.00;;;;4863701;28;111718;-63
2023/07/26 08:13:33;;;;;;;0.80;0.55;;;19.60;97.90;19.70;100082.00;;;;4865153;28;100314;-63
2023/07/26 08:15:59;;;;;;;0.55;0.55;;;19.60;98.00;19.70;100070.00;;;;4866096;28;82957;-64
2023/07/26 08:18:25;;;;;;;1.85;0.60;;;19.60;97.90;19.80;100073.00;;;;4862595;28;82775;-64
2023/07/26 08:20:52;;;;;;;0.63;0.47;;;19.60;97.80;19.90;100063.00;;;;4862091;28;84092;-64
2023/07/26 08:23:18;;;;;;;1.05;0.55;;;19.80;96.90;20.00;100068.00;;;;4861555;28;111650;-64
2023/07/26 08:25:43;;;;;;;3.15;0.80;;;19.80;95.20;20.00;100074.00;;;;4859482;28;109459;-64
2023/07/26 08:28:09;;;;;;;0.55;0.55;;;19.80;95.50;20.00;100069.00;;;;4863637;28;107759;-63
2023/07/26 08:30:37;;;;;;;0.40;0.40;;;19.90;94.70;20.10;100085.00;;;;4861818;28;111294;-63
2023/07/26 08:33:03;;;;;;;1.27;0.98;;;19.90;94.30;20.10;100068.00;;;;4860940;28;82758;-64
2023/07/26 08:35:30;;;;;;;1.67;0.73;;;20.00;94.00;20.20;100080.00;;;;4860192;28;91888;-63
2023/07/26 08:37:55;;;;;;;0.20;0.20;;;20.10;93.70;20.10;100081.00;;;;4861719;28;82815;-63
2023/07/26 08:40:21;;;;;;;3.22;0.35;;;20.00;92.70;20.00;100087.00;;;;4863913;28;113065;-63
2023/07/26 08:42:47;;;;;;;0.40;0.40;;;19.90;92.70;20.00;100076.00;;;;4864774;28;83527;-63
2023/07/26 08:45:14;;;;;;;0.90;0.63;;;19.90;93.20;20.20;100083.00;;;;4861275;28;110731;-64
2023/07/26 08:47:46;;;;;;;0.73;0.52;;;20.00;92.80;20.30;100081.00;;;;4863763;28;106476;-64
2023/07/26 08:50:12;;;;;;;0.20;0.20;;;20.10;91.30;20.30;100092.00;;;;4864221;28;113598;-63
2023/07/26 08:52:38;;;;;;;0.28;0.25;;;20.10;90.80;20.40;100081.00;;;;4878734;28;85022;-63
2023/07/26 08:55:04;;;;;;;0.40;0.40;;;20.20;91.20;20.50;100088.00;;;;4862313;28;83132;-62
2023/07/26 08:57:30;;;;;;;1.25;0.80;;;20.30;90.90;20.60;100085.00;;;;4870820;28;100826;-63
2023/07/26 08:59:56;;;;;;;0.95;0.75;;;20.40;90.70;20.80;100082.00;;;;4857937;28;84106;-63
2023/07/26 09:02:28;;;;;;;0.60;0.60;;;20.60;90.50;21.10;100081.00;;;;4855907;28;114648;-63
2023/07/26 09:04:53;;;;;;;2.35;0.63;;;20.80;90.40;21.40;100085.00;;;;4855615;28;111334;-63
2023/07/26 09:07:19;;;;;;;2.35;0.47;;;21.10;86.30;21.50;100080.00;;;;4857861;28;110238;-64
2023/07/26 09:09:45;;;;;;;1.08;0.60;;;21.20;85.00;21.60;100090.00;;;;4859418;28;83496;-64
2023/07/26 09:12:25;;;;;;;0.60;0.50;;;21.40;84.10;21.70;100092.00;;;;4861036;28;82771;-63
2023/07/26 09:14:57;;;;;;;1.80;0.65;;;21.50;83.20;21.70;100097.00;;;;4858542;28;82782;-64
2023/07/26 09:17:37;;;;;;;0.77;0.50;;;21.50;82.90;21.60;100095.00;;;;4864253;28;82409;-63
2023/07/26 09:20:04;;;;;;;2.00;0.45;;;21.50;81.60;21.60;100095.00;;;;4853258;28;83581;-64
2023/07/26 09:22:30;;;;;;;0.68;0.50;;;21.50;80.30;21.70;100094.00;;;;4857015;28;84829;-64
2023/07/26 09:24:56;;;;;;;0.77;0.77;;;21.60;78.70;21.70;100087.00;;;;4858023;28;83936;-64
2023/07/26 09:27:22;;;;;;;0.80;0.60;;;21.50;78.20;21.80;100089.00;;;;4860350;28;101733;-64
2023/07/26 09:29:55;;;;;;;0.60;0.40;;;21.60;76.60;21.90;100089.00;;;;4860640;28;83508;-63
2023/07/26 09:32:29;;;;;;;0.63;0.50;;;21.70;76.40;22.10;100091.00;;;;4860615;28;83354;-63
2023/07/26 09:34:59;;;;;;;0.50;0.50;;;21.90;77.20;22.30;100090.00;;;;4867078;28;82741;-63
2023/07/26 09:37:25;;;;;;;0.60;0.55;;;22.10;76.60;22.50;100094.00;;;;4860475;28;82512;-63
2023/07/26 09:39:51;;;;;;;0.82;0.70;;;22.30;76.30;22.50;100085.00;;;;4860734;28;84026;-63
2023/07/26 09:42:17;;;;;;;0.47;0.40;;;22.30;74.00;22.30;100096.00;;;;4871528;28;112465;-62
2023/07/26 09:44:46;;;;;;;0.75;0.60;;;22.20;73.60;22.20;100094.00;;;;4863573;28;82709;-62
2023/07/26 09:47:15;;;;;;;0.50;0.43;;;22.10;73.80;22.00;100099.00;;;;4859988;28;82794;-63
2023/07/26 09:49:50;;;;;;;1.35;0.65;;;21.90;73.50;22.00;100102.00;;;;4860207;28;84277;-63
2023/07/26 09:52:20;;;;;;;1.02;0.70;;;21.80;74.50;22.10;100099.00;;;;4862387;28;84378;-63
2023/07/26 09:54:46;;;;;;;1.50;0.82;;;21.90;75.10;22.20;100091.00;;;;4864798;28;82833;-63
2023/07/26 09:57:15;;;;;;;0.85;0.57;;;21.90;74.00;22.30;100083.00;;;;4860963;28;105586;-63
2023/07/26 09:59:41;;;;;;;2.85;0.88;;;22.10;72.70;22.40;100079.00;;;;4862678;28;85313;-64
2023/07/26 10:02:09;;;;;;;0.93;0.75;;;22.10;71.60;22.50;100075.00;;;;4857570;28;112735;-63
2023/07/26 10:04:49;;;;;;;0.63;0.43;;;22.20;67.80;22.70;100083.00;;;;4860976;28;82638;-65
2023/07/26 10:07:16;;;;;;;0.60;0.60;;;22.40;67.40;22.90;100077.00;;;;4863390;28;87618;-63
2023/07/26 10:09:45;;;;;;;1.23;1.00;;;22.60;65.40;23.20;100073.00;;;;4861156;28;83816;-63
2023/07/26 10:12:12;;;;;;;0.88;0.77;;;22.80;65.50;23.50;100083.00;;;;4869220;28;83106;-64
2023/07/26 10:14:39;;;;;;;0.40;0.40;;;23.10;65.50;23.70;100085.00;;;;4860416;28;83789;-64
2023/07/26 10:17:06;;;;;;;1.02;0.90;;;23.30;64.30;23.90;100084.00;;;;4864836;28;92903;-63
2023/07/26 10:19:32;;;;;;;0.55;0.50;;;23.50;63.80;24.00;100087.00;;;;4864760;28;83715;-63
2023/07/26 10:21:58;;;;;;;0.93;0.70;;;23.60;63.70;24.10;100066.00;;;;4866770;28;93663;-63
2023/07/26 10:24:25;;;;;;;1.17;0.93;;;23.70;60.80;24.00;100082.00;;;;4857812;28;111089;-63
2023/07/26 10:26:53;;;;;;;7.57;0.98;;;23.70;59.20;24.10;100068.00;;;;4861964;28;88859;-63
2023/07/26 10:29:22;;;;;;;1.15;0.40;;;23.70;59.40;24.20;100081.00;;;;4864589;28;102560;-64
2023/07/26 10:32:01;;;;;;;1.05;0.95;;;23.80;58.90;24.20;100080.00;;;;4867631;28;82988;-63
2023/07/26 10:34:27;;;;;;;0.77;0.68;;;23.80;58.00;24.10;100073.00;;;;4866655;28;82976;-63
2023/07/26 10:36:53;;;;;;;0.52;0.50;;;23.80;57.70;23.90;100068.00;;;;4862271;28;108558;-63
2023/07/26 10:39:29;;;;;;;1.38;0.35;;;23.70;57.30;23.60;100073.00;;;;4864572;28;113529;-63
2023/07/26 10:41:55;;;;;;;1.30;0.52;;;23.40;58.10;23.50;100081.00;;;;4860363;28;85017;-64
2023/07/26 10:44:21;;;;;;;2.88;0.40;;;23.30;58.60;23.40;100075.00;;;;4861486;28;109124;-64
2023/07/26 10:47:16;;;;;;;0.40;0.40;;;23.20;58.70;23.20;100074.00;;;;4860773;28;104069;-64